A- A+ FrançaisEnglishEspañol中国

Services sur Internet Soldes sur Internet Des idées de cadeaux Météo Météo aéro

La météo à : Autours de vous Tarbes-Lourdes-PyrénéesCherbourg-Maupertus Le-Havre-OctevilleAvignon Pujaut

La météo aéronautique pour les pilotes, la préparation du vol avec les METAR (METeorological Aerodrome Report, message d'observation des conditions météorologiques pour l'aviation) et Les TAF (Terminal Aerodrome Forecast : message de prévision à court terme des conditions météorologiques pour l'aviation). Et les autres ressources comme les VAC (Visual Approch Chart) et les NOTAM (Notice To Airman) pour préprer les vols.

Aéroport Ardvidsjaur (Suède) / OACI ESNX/ IATA AJR

L'altitude de l'aéroport Ardvidsjaur est de 379 m = 1243 ft. Il est situé à proximité de Arvidsjaur (Suède). La météo générale à 5 jours est disponible pour Fjällbonäs situé à 4 km.

METAR de l'aéroport Ardvidsjaur - ESNX

ESNX 091820Z 29009KT 9999 SCT024 BKN090 M08/M09 Q0986

Décodage du METAR de l'aéroport Ardvidsjaur (SE)

METAR émis par ESNX le lundi 9 décembre 2019 à 18:20 heure TU, il y a 26 minutes.

La visibilité est de supérieure à 10 km = supérieure à 6.2 sm.

La température est de -8°C = 18 °F et le point rosée est de -9°C = 16 °F . Ce qui correspond à 93% d'humidité relative.

Le QNH est de 986 hPa = 29.12 inHg

Vent de 9 kt = 17 km/h, orienté à 290°.

Nuages : Nuages épars à 2400 ft = 730 mètres. Couverture nuageuse fragmentée à 9000 ft = 2740 mètres.

TAF de l'aéroport Ardvidsjaur - ESNX

ESNX 091730Z 0918/0921 30008KT 8000 -SN SCT015 BKN040 PROB40 0918/0919 2500 SN

ESNX 091730Z 0918/0921 30008KT 8000 faible SN nuages épars à 015 couverture nuageuse fragmentée à 040 probabilité de 40% d'avoir 0918/0919 2500 neige

Aéroport à proximité de Ardvidsjaur

Météo générale à 5 jours à Fjällbonäs (4 km)Aéroport Vidsel (51 km)Aéroport Pitea (94 km)Aéroport Storumam (102 km)Aéroport Jokkmokk (108 km)Aéroport Lycksele (119 km)Aéroport Lulea Kallax (131 km)

Vue aérienne de l'aéroport Ardvidsjaur

NOTAM de l'aéroport Ardvidsjaur

Les NOTAM sont fournis sans aucune garantie de leur actualité. Le pilote est le seul responsable de la vérification de sa validité avant de l'utiliser opérationnellement pour préparer un vol ou l'utiliser lors de sa navigation.

Pas de NOTAM

Sources des données